Time;durP1;ratioP1;P1;durP2;ratioP2;P2;SDS_P1;SDS_P2;PMS_P1;PMS_P2;Temp;Humidity;BMP_temperature;BMP_pressure;BME280_temperature;BME280_humidity;BME280_pressure;Samples;Min_cycle;Max_cycle;Signal;HPM_P1;HPM_P2
2021/07/11 00:00:48;;;;;;;0.82;0.40;;;;;;;11.65;100.00;99778.78;5055573;28;20044;-55
2021/07/11 00:03:51;;;;;;;1.13;0.70;;;;;;;11.60;100.00;99782.28;5055493;28;20044;-55
2021/07/11 00:06:55;;;;;;;1.73;0.55;;;;;;;11.58;100.00;99787.56;5055530;28;20052;-55
2021/07/11 00:09:58;;;;;;;0.10;0.10;;;;;;;11.62;100.00;99773.41;5055392;28;20040;-54
2021/07/11 00:13:02;;;;;;;4.68;0.32;;;;;;;11.60;100.00;99787.84;5055129;28;20052;-55
2021/07/11 00:16:06;;;;;;;2.83;0.52;;;;;;;11.58;100.00;99779.19;5055054;28;20052;-55
2021/07/11 00:19:09;;;;;;;3.92;1.20;;;;;;;11.54;100.00;99778.63;5055085;28;20067;-55
2021/07/11 00:22:13;;;;;;;1.40;0.95;;;;;;;11.49;100.00;99782.09;5055138;28;20047;-55
2021/07/11 00:25:17;;;;;;;0.85;0.43;;;;;;;11.43;100.00;99786.81;5054719;28;20048;-55
2021/07/11 00:28:20;;;;;;;0.68;0.30;;;;;;;11.46;100.00;99783.06;5052123;28;20048;-55
2021/07/11 00:31:24;;;;;;;15.63;0.30;;;;;;;11.39;100.00;99784.22;5052798;28;20048;-55
2021/07/11 00:34:27;;;;;;;1.70;0.30;;;;;;;11.35;100.00;99785.66;5052177;28;20040;-51
2021/07/11 00:37:30;;;;;;;3.17;0.52;;;;;;;11.34;100.00;99781.34;5052100;28;20052;-52
2021/07/11 00:40:34;;;;;;;4.68;0.40;;;;;;;11.30;100.00;99786.34;5052768;28;20048;-52
2021/07/11 00:43:38;;;;;;;4.82;0.90;;;;;;;11.31;100.00;99787.88;5052708;28;20056;-52
2021/07/11 00:46:44;;;;;;;1.67;0.68;;;;;;;11.28;100.00;99786.06;5052172;28;20052;-52
2021/07/11 00:49:48;;;;;;;4.78;0.50;;;;;;;11.24;100.00;99788.28;5052141;28;20064;-52
2021/07/11 00:52:51;;;;;;;2.10;0.52;;;;;;;11.15;100.00;99791.16;5047862;28;20055;-52
2021/07/11 00:55:55;;;;;;;0.32;0.30;;;;;;;11.11;100.00;99785.03;5048700;28;20402;-52
2021/07/11 00:58:59;;;;;;;1.33;0.38;;;;;;;11.08;100.00;99786.75;5051306;28;20056;-52
2021/07/11 01:02:13;;;;;;;3.10;0.55;;;;;;;11.02;100.00;99793.47;5051116;28;20051;-52
2021/07/11 01:05:17;;;;;;;0.68;0.43;;;;;;;10.98;100.00;99793.66;5051388;28;20040;-52
2021/07/11 01:08:32;;;;;;;3.25;0.75;;;;;;;10.98;100.00;99790.88;5050043;28;20041;-52
2021/07/11 01:11:43;;;;;;;0.75;0.45;;;;;;;10.94;100.00;99792.28;5051591;28;20052;-52
2021/07/11 01:14:50;;;;;;;1.40;0.77;;;;;;;10.91;100.00;99798.84;5051583;28;20056;-52
2021/07/11 01:17:58;;;;;;;0.98;0.63;;;;;;;10.85;100.00;99789.63;5051477;28;20374;-52
2021/07/11 01:21:06;;;;;;;3.45;0.70;;;;;;;10.82;100.00;99787.78;5050952;28;20718;-51
2021/07/11 01:24:33;;;;;;;0.43;0.38;;;;;;;10.82;100.00;99785.00;5051203;28;20044;-51
2021/07/11 01:27:38;;;;;;;2.22;0.40;;;;;;;10.80;100.00;99781.94;5050510;28;20059;-52
2021/07/11 01:30:43;;;;;;;2.22;0.70;;;;;;;10.75;100.00;99774.22;5061621;28;20055;-52
2021/07/11 01:33:49;;;;;;;3.75;0.98;;;;;;;10.72;100.00;99778.00;5050627;28;20063;-52
2021/07/11 01:36:54;;;;;;;2.15;0.40;;;;;;;10.68;100.00;99777.41;5050660;28;20043;-52
2021/07/11 01:40:00;;;;;;;1.17;0.28;;;;;;;10.70;100.00;99772.88;5050710;28;20048;-51
2021/07/11 01:43:04;;;;;;;0.40;0.30;;;;;;;10.66;100.00;99770.28;5050409;28;20056;-52
2021/07/11 01:46:09;;;;;;;1.92;0.55;;;;;;;10.60;100.00;99774.22;5050660;28;20048;-52
2021/07/11 01:49:14;;;;;;;2.45;0.30;;;;;;;10.57;100.00;99772.38;5053866;28;20390;-52
2021/07/11 01:52:18;;;;;;;2.83;0.60;;;;;;;10.61;100.00;99770.94;5052572;28;20044;-52
2021/07/11 01:55:25;;;;;;;1.00;0.63;;;;;;;10.69;100.00;99765.78;5053354;28;20051;-52
2021/07/11 01:58:29;;;;;;;0.60;0.60;;;;;;;10.69;100.00;99765.78;5052105;28;20059;-52
2021/07/11 02:01:33;;;;;;;1.45;0.50;;;;;;;10.63;100.00;99768.44;5052705;28;20382;-52
2021/07/11 02:04:36;;;;;;;2.00;0.63;;;;;;;10.57;100.00;99766.81;5052962;28;20044;-51
2021/07/11 02:07:40;;;;;;;1.20;0.60;;;;;;;10.55;100.00;99770.06;5053354;28;20052;-51
2021/07/11 02:10:46;;;;;;;2.08;0.98;;;;;;;10.53;100.00;99772.56;5052984;28;20044;-52
2021/07/11 02:13:58;;;;;;;2.75;0.50;;;;;;;10.52;100.00;99768.25;5031376;28;20387;-52
2021/07/11 02:17:14;;;;;;;2.28;0.57;;;;;;;10.50;100.00;99769.97;5031866;28;20052;-53
2021/07/11 02:20:19;;;;;;;1.05;0.43;;;;;;;10.43;100.00;99765.56;5033137;28;20052;-52
2021/07/11 02:23:25;;;;;;;0.95;0.90;;;;;;;10.43;100.00;99767.56;5033021;28;20490;-52
2021/07/11 02:26:30;;;;;;;2.35;0.35;;;;;;;10.36;100.00;99763.13;5032639;28;20056;-52
2021/07/11 02:29:43;;;;;;;2.05;0.98;;;;;;;10.34;100.00;99768.41;5032980;28;20060;-52
2021/07/11 02:32:49;;;;;;;2.13;0.52;;;;;;;10.34;100.00;99756.50;5032433;28;20044;-52
2021/07/11 02:35:54;;;;;;;0.70;0.60;;;;;;;10.28;100.00;99750.81;5032917;28;20674;-52
2021/07/11 02:39:08;;;;;;;7.78;0.82;;;;;;;10.26;100.00;99744.19;5033015;28;20061;-52
2021/07/11 02:42:13;;;;;;;2.30;0.73;;;;;;;10.22;100.00;99747.16;5032754;28;20040;-52
2021/07/11 02:45:18;;;;;;;1.98;0.73;;;;;;;10.20;100.00;99740.53;5032895;28;20105;-52
2021/07/11 02:48:22;;;;;;;1.25;0.40;;;;;;;10.15;100.00;99746.75;5032613;28;20064;-52
2021/07/11 02:51:29;;;;;;;3.22;1.10;;;;;;;10.11;100.00;99748.94;5031916;28;20049;-52
2021/07/11 02:54:45;;;;;;;3.80;0.47;;;;;;;10.16;100.00;99746.28;5032480;28;20048;-52
2021/07/11 02:57:55;;;;;;;9.68;0.80;;;;;;;10.24;100.00;99753.03;5032687;28;20417;-52
2021/07/11 03:00:59;;;;;;;1.75;0.65;;;;;;;10.25;100.00;99746.19;5036858;28;20052;-52
2021/07/11 03:04:05;;;;;;;0.60;0.50;;;;;;;10.27;100.00;99754.06;5036455;28;20048;-52
2021/07/11 03:07:09;;;;;;;2.85;0.73;;;;;;;10.26;100.00;99756.09;5035907;28;20045;-52
2021/07/11 03:10:14;;;;;;;1.85;0.70;;;;;;;10.29;100.00;99746.78;5035830;28;20052;-51
2021/07/11 03:13:20;;;;;;;1.45;0.77;;;;;;;10.31;100.00;99757.47;5051732;28;20056;-52
2021/07/11 03:16:25;;;;;;;4.05;0.77;;;;;;;10.36;100.00;99754.78;5056090;28;20872;-52
2021/07/11 03:19:29;;;;;;;1.42;0.55;;;;;;;10.49;100.00;99760.84;5055828;28;20052;-52
2021/07/11 03:22:36;;;;;;;0.57;0.20;;;;;;;10.59;100.00;99765.09;5056244;28;20048;-52
2021/07/11 03:25:39;;;;;;;1.38;0.70;;;;;;;10.71;100.00;99759.72;5056010;28;20060;-52
2021/07/11 03:28:46;;;;;;;1.50;0.95;;;;;;;10.85;100.00;99761.78;5055508;28;20374;-52
2021/07/11 03:31:50;;;;;;;0.93;0.57;;;;;;;11.00;100.00;99759.75;5056032;28;20047;-52
2021/07/11 03:34:53;;;;;;;2.28;1.08;;;;;;;11.13;100.00;99754.66;5056051;28;20048;-52
2021/07/11 03:37:59;;;;;;;1.98;0.98;;;;;;;11.22;100.00;99751.75;5055856;28;20587;-52
2021/07/11 03:41:03;;;;;;;1.70;0.82;;;;;;;11.32;100.00;99764.34;5055872;28;20048;-52
2021/07/11 03:44:09;;;;;;;0.52;0.30;;;;;;;11.44;100.00;99763.25;5055998;28;20043;-52
2021/07/11 03:47:15;;;;;;;1.45;0.55;;;;;;;11.53;100.00;99765.16;5055911;28;20366;-52
2021/07/11 03:50:25;;;;;;;1.55;0.55;;;;;;;11.63;100.00;99761.75;5055660;28;20044;-52
2021/07/11 03:53:32;;;;;;;0.47;0.47;;;;;;;11.76;100.00;99759.44;5055558;28;20060;-52
2021/07/11 03:56:36;;;;;;;2.75;0.77;;;;;;;11.81;100.00;99753.19;5055677;28;20052;-52
2021/07/11 03:59:40;;;;;;;4.13;0.50;;;;;;;11.86;100.00;99754.53;5055420;28;20056;-52
2021/07/11 04:02:48;;;;;;;1.20;0.95;;;;;;;11.89;100.00;99757.09;5055811;28;20048;-51
2021/07/11 04:05:53;;;;;;;1.08;0.57;;;;;;;11.93;100.00;99754.84;5055760;28;20488;-52
2021/07/11 04:09:02;;;;;;;1.27;0.95;;;;;;;11.94;100.00;99750.81;5055428;28;20048;-52
2021/07/11 04:12:09;;;;;;;2.08;0.65;;;;;;;11.97;100.00;99755.44;5054591;28;20055;-52
2021/07/11 04:15:15;;;;;;;2.90;0.70;;;;;;;11.99;100.00;99755.72;5055038;28;20500;-52
2021/07/11 04:18:21;;;;;;;0.75;0.60;;;;;;;12.02;100.00;99757.53;5055174;28;20064;-53
2021/07/11 04:21:28;;;;;;;2.92;0.90;;;;;;;12.10;100.00;99753.06;5054261;28;20071;-52
2021/07/11 04:24:35;;;;;;;1.60;0.65;;;;;;;12.30;100.00;99754.31;5055059;28;20056;-52
2021/07/11 04:27:39;;;;;;;2.88;1.13;;;;;;;12.42;100.00;99764.34;5054816;28;20171;-52
2021/07/11 04:30:43;;;;;;;1.77;0.68;;;;;;;12.53;100.00;99768.06;5054170;28;20059;-52
2021/07/11 04:33:47;;;;;;;1.17;0.70;;;;;;;12.61;100.00;99771.16;5054799;28;20052;-52
2021/07/11 04:36:50;;;;;;;10.10;1.20;;;;;;;12.71;100.00;99775.34;5054145;28;20393;-52
2021/07/11 04:39:54;;;;;;;1.27;0.88;;;;;;;12.79;100.00;99773.66;5054884;28;20403;-52
2021/07/11 04:42:59;;;;;;;4.20;1.38;;;;;;;12.84;100.00;99770.16;5054681;28;20056;-52
2021/07/11 04:46:03;;;;;;;2.65;1.00;;;;;;;12.89;100.00;99764.63;5054942;28;20059;-52
2021/07/11 04:49:07;;;;;;;1.40;0.77;;;;;;;12.97;100.00;99755.78;5065334;28;20055;-52
2021/07/11 04:52:11;;;;;;;1.92;1.13;;;;;;;13.03;100.00;99757.38;5054445;28;20393;-52
2021/07/11 04:55:17;;;;;;;7.47;1.63;;;;;;;13.11;100.00;99761.28;5054510;28;20052;-52
2021/07/11 04:58:21;;;;;;;4.95;1.58;;;;;;;13.21;100.00;99765.44;5054210;28;20048;-52
2021/07/11 05:01:25;;;;;;;3.58;1.33;;;;;;;13.31;100.00;99769.59;5054505;28;20052;-51
2021/07/11 05:04:29;;;;;;;7.82;1.58;;;;;;;13.38;100.00;99774.72;5054235;28;20040;-52
2021/07/11 05:07:33;;;;;;;5.47;1.60;;;;;;;13.47;100.00;99768.94;5054243;28;20040;-52
2021/07/11 05:10:36;;;;;;;6.78;1.75;;;;;;;13.57;100.00;99772.34;5054494;28;20099;-52
2021/07/11 05:13:40;;;;;;;4.22;1.63;;;;;;;13.63;100.00;99762.72;5053700;28;20036;-52
2021/07/11 05:16:44;;;;;;;6.20;2.17;;;;;;;13.67;100.00;99754.84;5054243;28;20500;-52
2021/07/11 05:19:47;;;;;;;3.30;1.60;;;;;;;13.72;100.00;99763.78;5054167;28;20052;-52
2021/07/11 05:22:50;;;;;;;3.38;1.55;;;;;;;13.78;100.00;99761.78;5054064;28;20363;-52
2021/07/11 05:25:55;;;;;;;4.57;1.63;;;;;;;13.81;100.00;99752.38;5054041;28;20056;-52
2021/07/11 05:28:58;;;;;;;4.55;1.70;;;;;;;13.85;100.00;99755.72;5053576;28;20052;-52
2021/07/11 05:32:03;;;;;;;5.32;1.58;;;;;;;13.91;100.00;99748.88;5053539;28;20052;-52
2021/07/11 05:35:07;;;;;;;6.63;1.90;;;;;;;13.96;100.00;99750.19;5053169;28;20048;-52
2021/07/11 05:38:11;;;;;;;3.90;0.98;;;;;;;14.02;100.00;99742.56;5052199;28;20047;-52
2021/07/11 05:41:14;;;;;;;5.88;0.98;;;;;;;14.03;100.00;99746.91;5053580;28;20497;-52
2021/07/11 05:44:18;;;;;;;4.97;1.83;;;;;;;14.02;100.00;99742.56;5053696;28;20052;-52
2021/07/11 05:47:21;;;;;;;9.75;1.30;;;;;;;14.06;100.00;99743.88;5053412;28;20068;-52
2021/07/11 05:50:25;;;;;;;8.25;2.35;;;;;;;14.10;100.00;99744.38;5053288;28;20047;-52
2021/07/11 05:53:28;;;;;;;4.30;1.38;;;;;;;14.22;100.00;99745.22;5053620;28;20044;-53
2021/07/11 05:56:32;;;;;;;7.85;1.80;;;;;;;14.41;100.00;99751.94;5053245;28;20481;-53
2021/07/11 05:59:35;;;;;;;6.30;1.90;;;;;;;14.57;100.00;99742.81;5053263;28;20048;-52
2021/07/11 06:02:39;;;;;;;5.72;1.33;;;;;;;14.69;100.00;99744.38;5052449;28;20047;-52
2021/07/11 06:05:43;;;;;;;3.72;1.45;;;;;;;14.82;100.00;99747.44;5053303;28;20059;-53
2021/07/11 06:08:46;;;;;;;4.00;1.60;;;;;;;15.04;100.00;99753.09;5053195;28;20512;-53
2021/07/11 06:11:50;;;;;;;5.85;1.83;;;;;;;15.28;100.00;99755.41;5052418;28;20048;-52
2021/07/11 06:14:54;;;;;;;5.88;2.17;;;;;;;15.51;100.00;99756.16;5052804;28;20048;-53
2021/07/11 06:17:59;;;;;;;4.90;1.55;;;;;;;15.63;100.00;99763.31;5053040;28;20052;-53
2021/07/11 06:21:02;;;;;;;4.18;1.42;;;;;;;15.76;100.00;99755.13;5053076;28;20378;-53
2021/07/11 06:24:05;;;;;;;8.20;2.17;;;;;;;15.75;100.00;99753.56;5052881;28;20044;-53
2021/07/11 06:27:08;;;;;;;6.35;1.95;;;;;;;15.73;100.00;99744.91;5052769;28;20056;-53
2021/07/11 06:30:15;;;;;;;6.03;1.95;;;;;;;15.67;100.00;99758.19;5052713;28;20052;-53
2021/07/11 06:33:18;;;;;;;2.78;1.52;;;;;;;15.62;100.00;99756.94;5052002;28;20056;-53
2021/07/11 06:36:21;;;;;;;10.60;2.63;;;;;;;15.64;100.00;99747.97;5052886;28;20056;-53
2021/07/11 06:39:25;;;;;;;5.22;2.05;;;;;;;15.68;100.00;99754.13;5052738;28;20055;-53
2021/07/11 06:42:28;;;;;;;6.95;2.10;;;;;;;15.72;100.00;99754.63;5052608;28;20040;-54
2021/07/11 06:45:32;;;;;;;7.07;2.55;;;;;;;15.67;100.00;99746.97;5052561;28;20052;-53
2021/07/11 06:48:36;;;;;;;6.97;2.47;;;;;;;15.71;100.00;99753.09;5052829;28;20048;-52
2021/07/11 06:51:40;;;;;;;4.10;2.42;;;;;;;15.77;100.00;99749.00;5052175;28;20048;-52
2021/07/11 06:54:43;;;;;;;8.65;2.38;;;;;;;15.78;100.00;99753.34;5052484;28;20048;-52
2021/07/11 06:57:46;;;;;;;8.20;2.63;;;;;;;15.85;100.00;99752.03;5052447;28;20056;-51
2021/07/11 07:00:50;;;;;;;2.88;2.15;;;;;;;15.83;100.00;99752.53;5052258;28;20072;-52
2021/07/11 07:03:53;;;;;;;5.10;1.73;;;;;;;15.80;100.00;99755.63;5052423;28;20052;-51
2021/07/11 07:06:56;;;;;;;5.88;2.20;;;;;;;15.72;100.00;99754.63;5052321;28;20060;-52
2021/07/11 07:10:00;;;;;;;3.90;1.50;;;;;;;15.70;100.00;99757.19;5052020;28;20048;-53
2021/07/11 07:13:04;;;;;;;6.10;2.00;;;;;;;15.59;100.00;99757.19;5052313;28;20056;-52
2021/07/11 07:16:07;;;;;;;7.78;1.83;;;;;;;15.64;100.00;99767.63;5052328;28;20059;-52
2021/07/11 07:19:10;;;;;;;7.47;1.90;;;;;;;15.75;100.00;99762.00;5051647;28;20044;-52
2021/07/11 07:22:14;;;;;;;1.92;0.70;;;;;;;15.84;100.00;99761.72;5051970;28;20111;-52
2021/07/11 07:25:18;;;;;;;6.90;1.92;;;;;;;16.01;100.00;99759.66;5052057;28;20068;-52
2021/07/11 07:28:22;;;;;;;1.88;0.77;;;;;;;16.17;100.00;99761.66;5051897;28;20067;-52
2021/07/11 07:31:25;;;;;;;3.80;1.83;;;;;;;16.28;100.00;99772.06;5052236;28;20382;-52
2021/07/11 07:34:30;;;;;;;2.70;1.30;;;;;;;16.44;100.00;99762.78;5051790;28;20501;-52
2021/07/11 07:37:33;;;;;;;6.68;1.50;;;;;;;16.53;100.00;99768.94;5051949;28;20040;-52
2021/07/11 07:40:37;;;;;;;4.22;1.27;;;;;;;16.57;100.00;99772.22;5051890;28;20056;-52
2021/07/11 07:43:40;;;;;;;4.05;0.93;;;;;;;16.60;100.00;99771.19;5051781;28;20389;-52
2021/07/11 07:46:44;;;;;;;3.58;1.17;;;;;;;16.81;100.00;99768.00;5055891;28;20044;-52
2021/07/11 07:49:47;;;;;;;2.35;0.90;;;;;;;17.11;100.00;99766.78;5054279;28;20500;-52
2021/07/11 07:52:51;;;;;;;3.78;1.42;;;;;;;17.19;100.00;99764.16;5052945;28;20051;-52
2021/07/11 07:55:55;;;;;;;4.65;1.90;;;;;;;17.21;100.00;99758.78;5053132;28;20059;-53
2021/07/11 07:58:58;;;;;;;3.08;1.40;;;;;;;17.30;100.00;99759.19;5054244;28;20056;-53
2021/07/11 08:02:02;;;;;;;2.42;1.15;;;;;;;17.48;100.00;99746.50;5050825;28;20508;-52
2021/07/11 08:05:07;;;;;;;2.58;1.20;;;;;;;17.57;100.00;99749.03;5054339;28;20036;-52
2021/07/11 08:08:10;;;;;;;3.53;1.38;;;;;;;17.78;100.00;99754.97;5054107;28;20052;-53
2021/07/11 08:11:14;;;;;;;4.25;0.88;;;;;;;17.90;100.00;99765.59;5052623;28;20043;-53
2021/07/11 08:14:18;;;;;;;4.10;1.75;;;;;;;18.08;100.00;99755.69;5053126;28;20044;-53
2021/07/11 08:17:22;;;;;;;2.55;0.93;;;;;;;18.17;100.00;99758.09;5039100;28;20052;-52
2021/07/11 08:20:25;;;;;;;3.47;1.00;;;;;;;18.38;100.00;99755.56;5051723;28;20063;-52
2021/07/11 08:23:29;;;;;;;2.75;0.98;;;;;;;18.51;100.00;99753.63;5052737;28;20044;-53
2021/07/11 08:26:33;;;;;;;6.50;1.48;;;;;;;18.53;100.00;99753.84;5054493;28;20052;-53
2021/07/11 08:29:37;;;;;;;2.45;1.23;;;;;;;18.64;100.00;99758.59;5054302;28;20047;-53
2021/07/11 08:32:41;;;;;;;3.80;1.17;;;;;;;18.79;100.00;99758.88;5054773;28;20386;-53
2021/07/11 08:35:46;;;;;;;2.65;1.15;;;;;;;18.63;100.00;99751.41;5054675;28;20475;-53
2021/07/11 08:38:49;;;;;;;7.15;3.08;;;;;;;18.53;100.00;99755.91;5054486;28;20044;-52
2021/07/11 08:41:54;;;;;;;7.38;1.00;;;;;;;18.53;100.00;99748.22;5054768;28;20047;-53
2021/07/11 08:44:58;;;;;;;6.90;1.67;;;;;;;18.64;100.00;99736.78;5054619;28;20056;-53
2021/07/11 08:48:02;;;;;;;0.85;0.40;;;;;;;18.68;100.00;99739.28;5055058;28;20413;-53
2021/07/11 08:51:06;;;;;;;1.73;1.02;;;;;;;18.75;100.00;99733.78;5055414;28;20048;-52
2021/07/11 08:54:11;;;;;;;2.60;1.27;;;;;;;19.22;100.00;99728.47;5054443;28;20060;-53
2021/07/11 08:57:14;;;;;;;4.75;1.75;;;;;;;19.62;100.00;99732.16;5053035;28;20063;-53
2021/07/11 09:00:22;;;;;;;2.45;0.70;;;;;;;19.74;100.00;99727.06;5053964;28;20068;-52
2021/07/11 09:03:26;;;;;;;3.47;0.90;;;;;;;19.72;100.00;99724.00;5053889;28;20048;-52
2021/07/11 09:06:43;;;;;;;2.65;0.82;;;;;;;19.63;100.00;99725.97;5053170;28;20064;-52
2021/07/11 09:09:55;;;;;;;1.30;0.30;;;;;;;19.91;100.00;99733.16;5053955;28;20069;-52
2021/07/11 09:13:00;;;;;;;3.70;0.75;;;;;;;20.08;100.00;99722.28;5053950;28;20378;-52
2021/07/11 09:16:03;;;;;;;2.42;0.63;;;;;;;20.24;100.00;99729.69;5053925;28;20048;-53
2021/07/11 09:19:19;;;;;;;1.40;0.80;;;;;;;19.97;100.00;99730.97;5053562;28;20052;-52
2021/07/11 09:22:24;;;;;;;2.35;0.93;;;;;;;19.39;100.00;99725.38;5054112;28;20048;-51
2021/07/11 09:25:29;;;;;;;2.28;0.60;;;;;;;19.07;100.00;99722.53;5053680;28;20048;-52
2021/07/11 09:28:38;;;;;;;1.73;0.50;;;;;;;18.96;100.00;99722.72;5053732;28;20044;-52
2021/07/11 09:31:41;;;;;;;2.75;0.88;;;;;;;19.00;100.00;99725.97;5053402;28;20076;-52
2021/07/11 09:34:45;;;;;;;3.78;0.70;;;;;;;19.39;100.00;99726.13;5053483;28;20052;-52
2021/07/11 09:38:00;;;;;;;1.23;0.30;;;;;;;19.37;100.00;99723.09;5053670;28;20048;-52
2021/07/11 09:41:20;;;;;;;2.78;0.65;;;;;;;19.33;100.00;99710.56;5053572;28;20051;-52
2021/07/11 09:44:23;;;;;;;1.20;0.70;;;;;;;19.26;100.00;99711.97;5053219;28;20048;-52
2021/07/11 09:47:29;;;;;;;1.40;0.40;;;;;;;19.30;100.00;99709.56;5053531;28;20378;-52
2021/07/11 09:50:33;;;;;;;2.28;0.32;;;;;;;19.27;100.00;99712.72;5053129;28;20052;-51
2021/07/11 09:53:36;;;;;;;1.55;0.50;;;;;;;19.24;100.00;99703.25;5053272;28;20044;-52
2021/07/11 09:56:42;;;;;;;1.65;0.65;;;;;;;19.34;100.00;99712.09;5052676;28;20047;-51
2021/07/11 09:59:46;;;;;;;1.02;0.35;;;;;;;19.62;100.00;99710.31;5052840;28;20051;-51
2021/07/11 10:02:52;;;;;;;3.33;0.73;;;;;;;19.87;100.00;99724.25;5053464;28;20370;-52
2021/07/11 10:05:56;;;;;;;1.15;0.47;;;;;;;19.91;100.00;99713.38;5053323;28;20048;-52
2021/07/11 10:09:01;;;;;;;1.95;0.30;;;;;;;20.16;100.00;99711.84;5052439;28;20127;-52
2021/07/11 10:12:05;;;;;;;0.60;0.20;;;;;;;20.44;100.00;99714.88;5052477;28;20056;-53
2021/07/11 10:15:12;;;;;;;3.53;0.40;;;;;;;20.56;100.00;99707.66;5051826;28;20044;-54
2021/07/11 10:18:19;;;;;;;0.63;0.10;;;;;;;20.70;100.00;99708.38;5052683;28;20044;-53
2021/07/11 10:21:31;;;;;;;0.70;0.28;;;;;;;20.67;100.00;99710.25;5052718;28;20103;-54
2021/07/11 10:24:41;;;;;;;0.57;0.13;;;;;;;20.52;100.00;99715.72;5052433;28;20045;-53
2021/07/11 10:27:47;;;;;;;0.25;0.05;;;;;;;20.33;100.00;99709.47;5052552;28;20071;-54
2021/07/11 10:30:52;;;;;;;0.38;0.10;;;;;;;20.23;100.00;99705.53;5052328;28;20048;-54
2021/07/11 10:33:56;;;;;;;1.17;0.43;;;;;;;19.99;100.00;99714.25;5052161;28;20052;-53
2021/07/11 10:37:11;;;;;;;0.75;0.75;;;;;;;19.98;100.00;99707.06;5050892;28;20064;-54
2021/07/11 10:40:20;;;;;;;0.70;0.10;;;;;;;19.86;100.00;99703.69;5051407;28;20551;-54
2021/07/11 10:43:23;;;;;;;0.30;0.28;;;;;;;19.50;100.00;99706.19;5052726;28;20052;-54
2021/07/11 10:46:37;;;;;;;1.45;0.40;;;;;;;19.43;100.00;99698.34;5053006;28;20039;-53
2021/07/11 10:49:51;;;;;;;2.25;0.40;;;;;;;19.61;100.00;99703.16;5052420;28;20040;-53
2021/07/11 10:52:56;;;;;;;0.68;0.10;;;;;;;19.75;100.00;99701.06;5052802;28;20508;-54
2021/07/11 10:56:00;;;;;;;0.43;0.22;;;;;;;19.92;100.00;99697.94;5052231;28;20048;-54
2021/07/11 10:59:03;;;;;;;0.70;0.20;;;;;;;19.98;100.00;99695.75;5052500;28;20052;-54
2021/07/11 11:02:22;;;;;;;0.75;0.15;;;;;;;19.72;100.00;99685.22;5052245;28;20051;-54
2021/07/11 11:05:26;;;;;;;1.08;0.43;;;;;;;19.58;100.00;99687.28;5052239;28;20052;-54
2021/07/11 11:08:30;;;;;;;1.67;0.45;;;;;;;19.68;100.00;99691.19;5051314;28;20108;-54
2021/07/11 11:11:33;;;;;;;2.08;0.38;;;;;;;19.76;100.00;99690.53;5051778;28;20051;-54
2021/07/11 11:14:37;;;;;;;0.85;0.17;;;;;;;19.83;100.00;99687.06;5050847;28;20378;-54
2021/07/11 11:17:41;;;;;;;2.42;0.60;;;;;;;19.98;100.00;99684.44;5052366;28;20485;-54
2021/07/11 11:20:53;;;;;;;1.77;0.50;;;;;;;20.18;100.00;99680.97;5055752;28;20060;-54
2021/07/11 11:23:56;;;;;;;1.48;0.47;;;;;;;20.29;100.00;99678.66;5056182;28;20052;-54
2021/07/11 11:27:00;;;;;;;0.50;0.00;;;;;;;20.69;100.00;99682.16;5053726;28;20052;-54
2021/07/11 11:30:19;;;;;;;0.73;0.10;;;;;;;20.79;100.00;99686.03;5053875;28;20048;-54
2021/07/11 11:33:23;;;;;;;1.00;0.32;;;;;;;20.61;100.00;99684.16;5055394;28;20389;-54
2021/07/11 11:36:42;;;;;;;1.00;0.20;;;;;;;20.49;100.00;99682.13;5055494;28;20480;-54
2021/07/11 11:39:46;;;;;;;1.15;0.00;;;;;;;20.19;100.00;99683.22;5055457;28;20112;-54
2021/07/11 11:42:54;;;;;;;0.80;0.40;;;;;;;19.93;100.00;99683.25;5055324;28;20052;-54
2021/07/11 11:45:58;;;;;;;0.32;0.10;;;;;;;19.79;100.00;99678.94;5055119;28;20059;-54
2021/07/11 11:49:05;;;;;;;2.25;0.28;;;;;;;19.48;100.00;99683.34;5056177;28;20496;-54
2021/07/11 11:52:09;;;;;;;1.08;0.55;;;;;;;19.22;100.00;99688.94;5055935;28;20119;-54
2021/07/11 11:55:14;;;;;;;7.68;0.30;;;;;;;19.08;100.00;99683.78;5054364;28;20060;-54
2021/07/11 11:58:31;;;;;;;1.05;0.15;;;;;;;19.09;100.00;99686.06;5055149;28;20492;-54
2021/07/11 12:01:36;;;;;;;1.10;0.55;;;;;;;19.20;100.00;99677.41;5055091;28;20044;-54
2021/07/11 12:04:39;;;;;;;3.35;0.35;;;;;;;19.33;100.00;99668.97;5054852;28;20048;-54
2021/07/11 12:07:42;;;;;;;0.65;0.20;;;;;;;19.53;100.00;99676.81;5055175;28;20047;-54
2021/07/11 12:10:47;;;;;;;0.75;0.52;;;;;;;19.83;100.00;99681.41;5055147;28;20056;-54
2021/07/11 12:13:52;;;;;;;0.47;0.20;;;;;;;20.05;100.00;99666.84;5034933;28;20068;-54
2021/07/11 12:17:01;;;;;;;0.63;0.13;;;;;;;19.98;100.00;99662.59;5035260;28;20056;-54
2021/07/11 12:20:05;;;;;;;0.63;0.10;;;;;;;19.85;100.00;99664.69;5034627;28;20053;-53
2021/07/11 12:23:10;;;;;;;0.82;0.30;;;;;;;19.63;100.00;99666.63;5034272;28;20052;-53
2021/07/11 12:26:14;;;;;;;2.05;0.20;;;;;;;19.39;100.00;99664.00;5033855;28;20044;-54
2021/07/11 12:29:29;;;;;;;0.55;0.10;;;;;;;19.38;100.00;99664.56;5042398;28;20044;-54
2021/07/11 12:32:53;;;;;;;1.40;0.52;;;;;;;19.39;100.00;99664.00;5051569;28;20044;-53
2021/07/11 12:36:00;;;;;;;0.55;0.15;;;;;;;19.50;100.00;99658.16;5053720;28;20055;-53
2021/07/11 12:39:23;;;;;;;1.35;0.25;;;;;;;19.57;100.00;99649.03;5053596;28;20052;-53
2021/07/11 12:42:28;;;;;;;0.40;0.20;;;;;;;19.78;100.00;99651.97;5069429;28;20111;-54
2021/07/11 12:45:32;;;;;;;0.40;0.20;;;;;;;20.12;100.00;99649.22;5053009;28;20508;-54
2021/07/11 12:48:47;;;;;;;0.30;0.10;;;;;;;20.34;100.00;99655.16;5053449;28;20508;-53
2021/07/11 12:51:51;;;;;;;0.73;0.20;;;;;;;20.37;100.00;99656.91;5053005;28;20052;-54
2021/07/11 12:54:55;;;;;;;5.57;0.20;;;;;;;20.45;100.00;99648.50;5053552;28;20048;-54
2021/07/11 12:58:13;;;;;;;0.13;0.00;;;;;;;20.35;100.00;99658.75;5053139;28;20052;-49
2021/07/11 13:01:17;;;;;;;0.20;0.00;;;;;;;20.19;100.00;99654.19;5053602;28;20048;-54
2021/07/11 13:04:20;;;;;;;1.52;0.25;;;;;;;19.94;100.00;99638.81;5053811;28;20036;-54
2021/07/11 13:07:27;;;;;;;0.10;0.10;;;;;;;19.93;100.00;99643.69;5053462;28;20048;-54
2021/07/11 13:10:30;;;;;;;1.20;0.20;;;;;;;20.22;100.00;99647.47;5053176;28;20780;-54
2021/07/11 13:13:34;;;;;;;0.10;0.10;;;;;;;20.46;100.00;99643.59;5052878;28;20059;-54
2021/07/11 13:16:38;;;;;;;0.10;0.00;;;;;;;20.57;100.00;99644.13;5052870;28;20485;-54
2021/07/11 13:19:41;;;;;;;0.30;0.10;;;;;;;20.75;100.00;99631.81;5053023;28;20052;-54
2021/07/11 13:22:44;;;;;;;0.50;0.20;;;;;;;21.45;100.00;99620.53;5053173;28;20044;-54
2021/07/11 13:25:48;;;;;;;0.20;0.10;;;;;;;21.97;100.00;99620.09;5052687;28;20060;-54
2021/07/11 13:28:51;;;;;;;0.63;0.32;;;;;;;22.07;100.00;99621.09;5052950;28;20052;-54
2021/07/11 13:31:55;;;;;;;0.20;0.00;;;;;;;22.22;100.00;99621.16;5052086;28;20052;-54
2021/07/11 13:34:59;;;;;;;0.55;0.20;;;;;;;22.15;100.00;99621.91;5052196;28;20096;-54
2021/07/11 13:38:02;;;;;;;0.50;0.20;;;;;;;21.97;100.00;99622.94;5052794;28;20048;-54
2021/07/11 13:41:06;;;;;;;0.20;0.10;;;;;;;21.65;100.00;99625.41;5052696;28;20055;-54
2021/07/11 13:44:09;;;;;;;0.25;0.10;;;;;;;21.21;100.00;99626.59;5052259;28;20048;-54
2021/07/11 13:47:13;;;;;;;0.50;0.00;;;;;;;21.00;100.00;99620.94;5052104;28;20044;-54
2021/07/11 13:50:18;;;;;;;0.55;0.05;;;;;;;20.72;100.00;99621.63;5051420;28;20044;-54
2021/07/11 13:53:21;;;;;;;0.75;0.20;;;;;;;20.61;100.00;99626.78;5052106;28;20393;-53
2021/07/11 13:56:25;;;;;;;0.00;0.00;;;;;;;20.55;100.00;99624.09;5051560;28;20524;-54
2021/07/11 13:59:29;;;;;;;0.38;0.10;;;;;;;20.63;100.00;99630.59;5051650;28;20048;-54
2021/07/11 14:02:32;;;;;;;1.95;0.25;;;;;;;20.63;100.00;99627.75;5051833;28;20052;-54
2021/07/11 14:05:36;;;;;;;0.90;0.10;;;;;;;20.73;100.00;99620.31;5052158;28;20508;-54
2021/07/11 14:08:39;;;;;;;0.20;0.10;;;;;;;20.92;100.00;99618.03;5051662;28;20048;-54
2021/07/11 14:11:43;;;;;;;0.75;0.10;;;;;;;21.10;100.00;99617.06;5051891;28;20068;-54
2021/07/11 14:14:47;;;;;;;2.08;0.10;;;;;;;21.20;100.00;99608.09;5050507;28;20455;-54
2021/07/11 14:17:51;;;;;;;0.43;0.10;;;;;;;21.21;100.00;99609.59;5052374;28;20048;-54
2021/07/11 14:20:55;;;;;;;0.43;0.10;;;;;;;21.14;100.00;99611.81;5051048;28;20048;-54